<?xml version="1.0" encoding="UTF-8" standalone="no" ?>
<gpx xmlns="http://www.topografix.com/GPX/1/1" xmlns:xsi="http://www.w3.org/2001/XMLSchema-instance" xsi:schemaLocation="http://www.topografix.com/GPX/1/1 http://www.topografix.com/GPX/1/1/gpx.xsd" version="1.1" creator="VisuGPX - https://www.visugpx.com">
  <metadata>
    <name>2018-03-09 - ski Jasse Bralard</name>
    <desc><![CDATA[Une sortie "kélébonne" https://www.youtube.com/watch?v=ELaLq6F2WPk]]></desc>
  </metadata>
  <trk>
    <name><![CDATA[2018-03-09 - ski pointe vaudaine]]></name>
    <trkseg>
      <trkpt lat="45.13952" lon="5.88898">
        <ele>1398.37</ele>
        <time>2018-03-09T08:39:57Z</time>
      </trkpt>
      <trkpt lat="45.13972" lon="5.8891">
        <ele>1406.55</ele>
        <time>2018-03-09T08:40:30Z</time>
      </trkpt>
      <trkpt lat="45.13989" lon="5.88901">
        <ele>1406.07</ele>
        <time>2018-03-09T08:41:04Z</time>
      </trkpt>
      <trkpt lat="45.13961" lon="5.88882">
        <ele>1409.43</ele>
        <time>2018-03-09T08:43:23Z</time>
      </trkpt>
      <trkpt lat="45.13968" lon="5.88885">
        <ele>1407.99</ele>
        <time>2018-03-09T08:43:34Z</time>
      </trkpt>
      <trkpt lat="45.13975" lon="5.88899">
        <ele>1406.07</ele>
        <time>2018-03-09T08:45:21Z</time>
      </trkpt>
      <trkpt lat="45.13979" lon="5.88886">
        <ele>1406.55</ele>
        <time>2018-03-09T08:47:36Z</time>
      </trkpt>
      <trkpt lat="45.13971" lon="5.88885">
        <ele>1407.03</ele>
        <time>2018-03-09T08:51:57Z</time>
      </trkpt>
      <trkpt lat="45.13982" lon="5.88864">
        <ele>1407.03</ele>
        <time>2018-03-09T08:52:19Z</time>
      </trkpt>
      <trkpt lat="45.1393" lon="5.8884">
        <ele>1423.37</ele>
        <time>2018-03-09T08:54:47Z</time>
      </trkpt>
      <trkpt lat="45.13879" lon="5.88864">
        <ele>1436.35</ele>
        <time>2018-03-09T08:56:05Z</time>
      </trkpt>
      <trkpt lat="45.13854" lon="5.88838">
        <ele>1446.92</ele>
        <time>2018-03-09T08:56:59Z</time>
      </trkpt>
      <trkpt lat="45.13745" lon="5.88827">
        <ele>1496.43</ele>
        <time>2018-03-09T09:01:00Z</time>
      </trkpt>
      <trkpt lat="45.13678" lon="5.88801">
        <ele>1516.62</ele>
        <time>2018-03-09T09:03:00Z</time>
      </trkpt>
      <trkpt lat="45.13556" lon="5.88766">
        <ele>1547.86</ele>
        <time>2018-03-09T09:05:56Z</time>
      </trkpt>
      <trkpt lat="45.13535" lon="5.88765">
        <ele>1556.03</ele>
        <time>2018-03-09T09:06:38Z</time>
      </trkpt>
      <trkpt lat="45.13453" lon="5.88754">
        <ele>1577.66</ele>
        <time>2018-03-09T09:08:50Z</time>
      </trkpt>
      <trkpt lat="45.13378" lon="5.88756">
        <ele>1609.38</ele>
        <time>2018-03-09T09:11:20Z</time>
      </trkpt>
      <trkpt lat="45.13324" lon="5.88747">
        <ele>1631.01</ele>
        <time>2018-03-09T09:13:08Z</time>
      </trkpt>
      <trkpt lat="45.13316" lon="5.88754">
        <ele>1633.42</ele>
        <time>2018-03-09T09:13:35Z</time>
      </trkpt>
      <trkpt lat="45.13312" lon="5.88794">
        <ele>1633.9</ele>
        <time>2018-03-09T09:14:03Z</time>
      </trkpt>
      <trkpt lat="45.13355" lon="5.88895">
        <ele>1637.26</ele>
        <time>2018-03-09T09:15:33Z</time>
      </trkpt>
      <trkpt lat="45.13377" lon="5.8901">
        <ele>1655.05</ele>
        <time>2018-03-09T09:17:29Z</time>
      </trkpt>
      <trkpt lat="45.13357" lon="5.89047">
        <ele>1663.7</ele>
        <time>2018-03-09T09:18:20Z</time>
      </trkpt>
      <trkpt lat="45.1334" lon="5.89051">
        <ele>1666.58</ele>
        <time>2018-03-09T09:18:54Z</time>
      </trkpt>
      <trkpt lat="45.13323" lon="5.89071">
        <ele>1669.47</ele>
        <time>2018-03-09T09:19:22Z</time>
      </trkpt>
      <trkpt lat="45.13315" lon="5.89091">
        <ele>1669.95</ele>
        <time>2018-03-09T09:19:38Z</time>
      </trkpt>
      <trkpt lat="45.13428" lon="5.89392">
        <ele>1710.8</ele>
        <time>2018-03-09T09:25:00Z</time>
      </trkpt>
      <trkpt lat="45.13435" lon="5.89486">
        <ele>1726.67</ele>
        <time>2018-03-09T09:26:53Z</time>
      </trkpt>
      <trkpt lat="45.13462" lon="5.89497">
        <ele>1733.39</ele>
        <time>2018-03-09T09:27:33Z</time>
      </trkpt>
      <trkpt lat="45.13459" lon="5.8953">
        <ele>1742.05</ele>
        <time>2018-03-09T09:28:23Z</time>
      </trkpt>
      <trkpt lat="45.13478" lon="5.89526">
        <ele>1748.78</ele>
        <time>2018-03-09T09:29:02Z</time>
      </trkpt>
      <trkpt lat="45.13478" lon="5.89535">
        <ele>1750.7</ele>
        <time>2018-03-09T09:29:14Z</time>
      </trkpt>
      <trkpt lat="45.13481" lon="5.89547">
        <ele>1754.06</ele>
        <time>2018-03-09T09:29:28Z</time>
      </trkpt>
      <trkpt lat="45.13498" lon="5.89572">
        <ele>1762.23</ele>
        <time>2018-03-09T09:30:14Z</time>
      </trkpt>
      <trkpt lat="45.13462" lon="5.89633">
        <ele>1780.02</ele>
        <time>2018-03-09T09:32:05Z</time>
      </trkpt>
      <trkpt lat="45.13439" lon="5.89644">
        <ele>1786.27</ele>
        <time>2018-03-09T09:32:45Z</time>
      </trkpt>
      <trkpt lat="45.13437" lon="5.89659">
        <ele>1788.67</ele>
        <time>2018-03-09T09:33:11Z</time>
      </trkpt>
      <trkpt lat="45.13437" lon="5.89661">
        <ele>1789.63</ele>
        <time>2018-03-09T09:34:07Z</time>
      </trkpt>
      <trkpt lat="45.13456" lon="5.89709">
        <ele>1786.75</ele>
        <time>2018-03-09T09:34:38Z</time>
      </trkpt>
      <trkpt lat="45.13459" lon="5.89719">
        <ele>1785.79</ele>
        <time>2018-03-09T09:34:40Z</time>
      </trkpt>
      <trkpt lat="45.135" lon="5.8979">
        <ele>1782.9</ele>
        <time>2018-03-09T09:35:19Z</time>
      </trkpt>
      <trkpt lat="45.13515" lon="5.89815">
        <ele>1779.54</ele>
        <time>2018-03-09T09:35:30Z</time>
      </trkpt>
      <trkpt lat="45.13523" lon="5.89819">
        <ele>1777.13</ele>
        <time>2018-03-09T09:35:32Z</time>
      </trkpt>
      <trkpt lat="45.13525" lon="5.89838">
        <ele>1773.77</ele>
        <time>2018-03-09T09:35:36Z</time>
      </trkpt>
      <trkpt lat="45.13532" lon="5.89853">
        <ele>1771.37</ele>
        <time>2018-03-09T09:35:39Z</time>
      </trkpt>
      <trkpt lat="45.13517" lon="5.89854">
        <ele>1767.04</ele>
        <time>2018-03-09T09:35:44Z</time>
      </trkpt>
      <trkpt lat="45.13499" lon="5.89866">
        <ele>1763.2</ele>
        <time>2018-03-09T09:35:49Z</time>
      </trkpt>
      <trkpt lat="45.13513" lon="5.89866">
        <ele>1760.79</ele>
        <time>2018-03-09T09:36:02Z</time>
      </trkpt>
      <trkpt lat="45.13507" lon="5.89903">
        <ele>1754.06</ele>
        <time>2018-03-09T09:36:08Z</time>
      </trkpt>
      <trkpt lat="45.13475" lon="5.90077">
        <ele>1772.33</ele>
        <time>2018-03-09T09:39:06Z</time>
      </trkpt>
      <trkpt lat="45.13494" lon="5.90106">
        <ele>1780.98</ele>
        <time>2018-03-09T09:40:01Z</time>
      </trkpt>
      <trkpt lat="45.13469" lon="5.90134">
        <ele>1792.52</ele>
        <time>2018-03-09T09:41:02Z</time>
      </trkpt>
      <trkpt lat="45.1347" lon="5.90161">
        <ele>1796.36</ele>
        <time>2018-03-09T09:41:30Z</time>
      </trkpt>
      <trkpt lat="45.13478" lon="5.90281">
        <ele>1803.57</ele>
        <time>2018-03-09T09:42:55Z</time>
      </trkpt>
      <trkpt lat="45.13478" lon="5.90334">
        <ele>1800.69</ele>
        <time>2018-03-09T09:43:25Z</time>
      </trkpt>
      <trkpt lat="45.13454" lon="5.90487">
        <ele>1822.32</ele>
        <time>2018-03-09T09:46:00Z</time>
      </trkpt>
      <trkpt lat="45.13469" lon="5.90541">
        <ele>1830.49</ele>
        <time>2018-03-09T09:47:05Z</time>
      </trkpt>
      <trkpt lat="45.13458" lon="5.90566">
        <ele>1838.18</ele>
        <time>2018-03-09T09:47:45Z</time>
      </trkpt>
      <trkpt lat="45.13451" lon="5.90594">
        <ele>1842.02</ele>
        <time>2018-03-09T09:48:16Z</time>
      </trkpt>
      <trkpt lat="45.13441" lon="5.90642">
        <ele>1850.68</ele>
        <time>2018-03-09T09:49:12Z</time>
      </trkpt>
      <trkpt lat="45.13458" lon="5.90701">
        <ele>1867.98</ele>
        <time>2018-03-09T09:50:42Z</time>
      </trkpt>
      <trkpt lat="45.13463" lon="5.90739">
        <ele>1873.75</ele>
        <time>2018-03-09T09:51:23Z</time>
      </trkpt>
      <trkpt lat="45.13436" lon="5.90858">
        <ele>1899.22</ele>
        <time>2018-03-09T09:53:51Z</time>
      </trkpt>
      <trkpt lat="45.1341" lon="5.90882">
        <ele>1906.91</ele>
        <time>2018-03-09T09:54:45Z</time>
      </trkpt>
      <trkpt lat="45.13434" lon="5.9091">
        <ele>1914.6</ele>
        <time>2018-03-09T09:55:48Z</time>
      </trkpt>
      <trkpt lat="45.1342" lon="5.90926">
        <ele>1919.89</ele>
        <time>2018-03-09T09:56:18Z</time>
      </trkpt>
      <trkpt lat="45.13426" lon="5.90938">
        <ele>1922.77</ele>
        <time>2018-03-09T09:56:34Z</time>
      </trkpt>
      <trkpt lat="45.13483" lon="5.90982">
        <ele>1935.75</ele>
        <time>2018-03-09T09:58:06Z</time>
      </trkpt>
      <trkpt lat="45.135" lon="5.91056">
        <ele>1952.57</ele>
        <time>2018-03-09T09:59:45Z</time>
      </trkpt>
      <trkpt lat="45.13512" lon="5.91054">
        <ele>1956.9</ele>
        <time>2018-03-09T10:00:13Z</time>
      </trkpt>
      <trkpt lat="45.13512" lon="5.91056">
        <ele>1956.9</ele>
        <time>2018-03-09T10:00:15Z</time>
      </trkpt>
      <trkpt lat="45.13499" lon="5.9109">
        <ele>1967.48</ele>
        <time>2018-03-09T10:01:09Z</time>
      </trkpt>
      <trkpt lat="45.13514" lon="5.91099">
        <ele>1971.8</ele>
        <time>2018-03-09T10:01:37Z</time>
      </trkpt>
      <trkpt lat="45.13505" lon="5.91115">
        <ele>1976.61</ele>
        <time>2018-03-09T10:02:03Z</time>
      </trkpt>
      <trkpt lat="45.1352" lon="5.91115">
        <ele>1979.49</ele>
        <time>2018-03-09T10:02:30Z</time>
      </trkpt>
      <trkpt lat="45.13515" lon="5.91153">
        <ele>1991.99</ele>
        <time>2018-03-09T10:03:50Z</time>
      </trkpt>
      <trkpt lat="45.13522" lon="5.91162">
        <ele>1995.35</ele>
        <time>2018-03-09T10:04:12Z</time>
      </trkpt>
      <trkpt lat="45.13525" lon="5.91164">
        <ele>1995.83</ele>
        <time>2018-03-09T10:04:17Z</time>
      </trkpt>
      <trkpt lat="45.13523" lon="5.91183">
        <ele>2003.04</ele>
        <time>2018-03-09T10:04:55Z</time>
      </trkpt>
      <trkpt lat="45.13509" lon="5.91188">
        <ele>2007.37</ele>
        <time>2018-03-09T10:05:24Z</time>
      </trkpt>
      <trkpt lat="45.13535" lon="5.91211">
        <ele>2015.54</ele>
        <time>2018-03-09T10:06:17Z</time>
      </trkpt>
      <trkpt lat="45.13492" lon="5.91228">
        <ele>2029.48</ele>
        <time>2018-03-09T10:07:31Z</time>
      </trkpt>
      <trkpt lat="45.1348" lon="5.9125">
        <ele>2036.69</ele>
        <time>2018-03-09T10:08:10Z</time>
      </trkpt>
      <trkpt lat="45.1348" lon="5.91253">
        <ele>2037.17</ele>
        <time>2018-03-09T10:09:39Z</time>
      </trkpt>
      <trkpt lat="45.13445" lon="5.91323">
        <ele>2044.86</ele>
        <time>2018-03-09T10:13:02Z</time>
      </trkpt>
      <trkpt lat="45.13434" lon="5.91336">
        <ele>2044.86</ele>
        <time>2018-03-09T10:13:12Z</time>
      </trkpt>
      <trkpt lat="45.13409" lon="5.91374">
        <ele>2042.46</ele>
        <time>2018-03-09T10:13:40Z</time>
      </trkpt>
      <trkpt lat="45.13401" lon="5.91414">
        <ele>2037.65</ele>
        <time>2018-03-09T10:13:54Z</time>
      </trkpt>
      <trkpt lat="45.13374" lon="5.91485">
        <ele>2024.67</ele>
        <time>2018-03-09T10:14:11Z</time>
      </trkpt>
      <trkpt lat="45.13367" lon="5.91509">
        <ele>2017.94</ele>
        <time>2018-03-09T10:14:16Z</time>
      </trkpt>
      <trkpt lat="45.13341" lon="5.9155">
        <ele>2008.33</ele>
        <time>2018-03-09T10:14:37Z</time>
      </trkpt>
      <trkpt lat="45.13333" lon="5.91596">
        <ele>2003.52</ele>
        <time>2018-03-09T10:15:16Z</time>
      </trkpt>
      <trkpt lat="45.1331" lon="5.91624">
        <ele>2007.37</ele>
        <time>2018-03-09T10:15:56Z</time>
      </trkpt>
      <trkpt lat="45.13315" lon="5.91651">
        <ele>2010.25</ele>
        <time>2018-03-09T10:16:23Z</time>
      </trkpt>
      <trkpt lat="45.13295" lon="5.91707">
        <ele>2016.5</ele>
        <time>2018-03-09T10:17:22Z</time>
      </trkpt>
      <trkpt lat="45.13316" lon="5.9175">
        <ele>2014.58</ele>
        <time>2018-03-09T10:17:57Z</time>
      </trkpt>
      <trkpt lat="45.13356" lon="5.91788">
        <ele>2013.62</ele>
        <time>2018-03-09T10:18:45Z</time>
      </trkpt>
      <trkpt lat="45.1338" lon="5.91807">
        <ele>2010.73</ele>
        <time>2018-03-09T10:18:58Z</time>
      </trkpt>
      <trkpt lat="45.13396" lon="5.91832">
        <ele>2011.22</ele>
        <time>2018-03-09T10:19:32Z</time>
      </trkpt>
      <trkpt lat="45.13437" lon="5.91972">
        <ele>2001.12</ele>
        <time>2018-03-09T10:21:14Z</time>
      </trkpt>
      <trkpt lat="45.13441" lon="5.92002">
        <ele>1997.76</ele>
        <time>2018-03-09T10:21:25Z</time>
      </trkpt>
      <trkpt lat="45.13467" lon="5.92009">
        <ele>1991.03</ele>
        <time>2018-03-09T10:21:36Z</time>
      </trkpt>
      <trkpt lat="45.13468" lon="5.9201">
        <ele>1991.03</ele>
        <time>2018-03-09T10:21:38Z</time>
      </trkpt>
      <trkpt lat="45.13459" lon="5.92026">
        <ele>1986.7</ele>
        <time>2018-03-09T10:21:45Z</time>
      </trkpt>
      <trkpt lat="45.13466" lon="5.92052">
        <ele>1980.93</ele>
        <time>2018-03-09T10:22:06Z</time>
      </trkpt>
      <trkpt lat="45.13479" lon="5.92056">
        <ele>1978.05</ele>
        <time>2018-03-09T10:22:43Z</time>
      </trkpt>
      <trkpt lat="45.13485" lon="5.92066">
        <ele>1972.76</ele>
        <time>2018-03-09T10:22:47Z</time>
      </trkpt>
      <trkpt lat="45.13498" lon="5.92095">
        <ele>1965.55</ele>
        <time>2018-03-09T10:22:51Z</time>
      </trkpt>
      <trkpt lat="45.13524" lon="5.92194">
        <ele>1962.19</ele>
        <time>2018-03-09T10:27:13Z</time>
      </trkpt>
      <trkpt lat="45.13586" lon="5.92225">
        <ele>1964.59</ele>
        <time>2018-03-09T10:28:38Z</time>
      </trkpt>
      <trkpt lat="45.13642" lon="5.92277">
        <ele>1966.03</ele>
        <time>2018-03-09T10:29:46Z</time>
      </trkpt>
      <trkpt lat="45.13667" lon="5.92297">
        <ele>1964.59</ele>
        <time>2018-03-09T10:30:11Z</time>
      </trkpt>
      <trkpt lat="45.13708" lon="5.92336">
        <ele>1966.03</ele>
        <time>2018-03-09T10:31:51Z</time>
      </trkpt>
      <trkpt lat="45.13731" lon="5.92337">
        <ele>1970.36</ele>
        <time>2018-03-09T10:32:20Z</time>
      </trkpt>
      <trkpt lat="45.13736" lon="5.92354">
        <ele>1972.76</ele>
        <time>2018-03-09T10:32:38Z</time>
      </trkpt>
      <trkpt lat="45.13852" lon="5.9244">
        <ele>1966.03</ele>
        <time>2018-03-09T10:34:36Z</time>
      </trkpt>
      <trkpt lat="45.13949" lon="5.92442">
        <ele>1981.9</ele>
        <time>2018-03-09T10:37:26Z</time>
      </trkpt>
      <trkpt lat="45.13941" lon="5.92471">
        <ele>1989.59</ele>
        <time>2018-03-09T10:38:32Z</time>
      </trkpt>
      <trkpt lat="45.13957" lon="5.92468">
        <ele>1995.83</ele>
        <time>2018-03-09T10:39:12Z</time>
      </trkpt>
      <trkpt lat="45.13948" lon="5.92479">
        <ele>1999.2</ele>
        <time>2018-03-09T10:39:35Z</time>
      </trkpt>
      <trkpt lat="45.13961" lon="5.92482">
        <ele>2004.97</ele>
        <time>2018-03-09T10:40:25Z</time>
      </trkpt>
      <trkpt lat="45.13973" lon="5.92487">
        <ele>2009.77</ele>
        <time>2018-03-09T10:41:03Z</time>
      </trkpt>
      <trkpt lat="45.13962" lon="5.92501">
        <ele>2014.1</ele>
        <time>2018-03-09T10:41:35Z</time>
      </trkpt>
      <trkpt lat="45.13984" lon="5.92505">
        <ele>2021.79</ele>
        <time>2018-03-09T10:42:20Z</time>
      </trkpt>
      <trkpt lat="45.13977" lon="5.9255">
        <ele>2032.36</ele>
        <time>2018-03-09T10:46:03Z</time>
      </trkpt>
      <trkpt lat="45.14017" lon="5.92732">
        <ele>2066.97</ele>
        <time>2018-03-09T10:50:03Z</time>
      </trkpt>
      <trkpt lat="45.14007" lon="5.92738">
        <ele>2071.78</ele>
        <time>2018-03-09T10:50:26Z</time>
      </trkpt>
      <trkpt lat="45.14032" lon="5.92771">
        <ele>2081.87</ele>
        <time>2018-03-09T10:52:23Z</time>
      </trkpt>
      <trkpt lat="45.14016" lon="5.92801">
        <ele>2087.16</ele>
        <time>2018-03-09T10:54:57Z</time>
      </trkpt>
      <trkpt lat="45.13976" lon="5.92832">
        <ele>2103.5</ele>
        <time>2018-03-09T10:56:36Z</time>
      </trkpt>
      <trkpt lat="45.13959" lon="5.92854">
        <ele>2109.27</ele>
        <time>2018-03-09T10:57:18Z</time>
      </trkpt>
      <trkpt lat="45.13921" lon="5.9285">
        <ele>2121.77</ele>
        <time>2018-03-09T10:59:20Z</time>
      </trkpt>
      <trkpt lat="45.13919" lon="5.92851">
        <ele>2122.25</ele>
        <time>2018-03-09T10:59:41Z</time>
      </trkpt>
      <trkpt lat="45.13941" lon="5.92963">
        <ele>2152.05</ele>
        <time>2018-03-09T11:02:40Z</time>
      </trkpt>
      <trkpt lat="45.13901" lon="5.9298">
        <ele>2168.39</ele>
        <time>2018-03-09T11:04:28Z</time>
      </trkpt>
      <trkpt lat="45.1391" lon="5.9298">
        <ele>2170.79</ele>
        <time>2018-03-09T11:05:12Z</time>
      </trkpt>
      <trkpt lat="45.13905" lon="5.92981">
        <ele>2172.72</ele>
        <time>2018-03-09T11:05:51Z</time>
      </trkpt>
      <trkpt lat="45.13901" lon="5.93005">
        <ele>2174.64</ele>
        <time>2018-03-09T11:06:43Z</time>
      </trkpt>
      <trkpt lat="45.13899" lon="5.93064">
        <ele>2181.85</ele>
        <time>2018-03-09T11:07:38Z</time>
      </trkpt>
      <trkpt lat="45.13899" lon="5.93073">
        <ele>2179.45</ele>
        <time>2018-03-09T11:07:43Z</time>
      </trkpt>
      <trkpt lat="45.13926" lon="5.93104">
        <ele>2180.41</ele>
        <time>2018-03-09T11:08:22Z</time>
      </trkpt>
      <trkpt lat="45.13936" lon="5.93176">
        <ele>2196.27</ele>
        <time>2018-03-09T11:09:54Z</time>
      </trkpt>
      <trkpt lat="45.13954" lon="5.93213">
        <ele>2213.09</ele>
        <time>2018-03-09T11:10:56Z</time>
      </trkpt>
      <trkpt lat="45.13955" lon="5.93214">
        <ele>2207.32</ele>
        <time>2018-03-09T11:10:59Z</time>
      </trkpt>
      <trkpt lat="45.13955" lon="5.93215">
        <ele>2209.73</ele>
        <time>2018-03-09T11:11:02Z</time>
      </trkpt>
      <trkpt lat="45.13955" lon="5.93215">
        <ele>2207.32</ele>
        <time>2018-03-09T11:11:03Z</time>
      </trkpt>
      <trkpt lat="45.13958" lon="5.93226">
        <ele>2207.81</ele>
        <time>2018-03-09T11:11:17Z</time>
      </trkpt>
      <trkpt lat="45.13948" lon="5.9328">
        <ele>2222.71</ele>
        <time>2018-03-09T11:12:43Z</time>
      </trkpt>
      <trkpt lat="45.13936" lon="5.93342">
        <ele>2235.2</ele>
        <time>2018-03-09T11:14:09Z</time>
      </trkpt>
      <trkpt lat="45.13925" lon="5.93386">
        <ele>2244.82</ele>
        <time>2018-03-09T11:15:30Z</time>
      </trkpt>
      <trkpt lat="45.13902" lon="5.93425">
        <ele>2259.24</ele>
        <time>2018-03-09T11:16:42Z</time>
      </trkpt>
      <trkpt lat="45.13925" lon="5.93445">
        <ele>2269.33</ele>
        <time>2018-03-09T11:17:44Z</time>
      </trkpt>
      <trkpt lat="45.13927" lon="5.93447">
        <ele>2269.81</ele>
        <time>2018-03-09T11:17:55Z</time>
      </trkpt>
      <trkpt lat="45.1393" lon="5.93446">
        <ele>2270.29</ele>
        <time>2018-03-09T11:19:05Z</time>
      </trkpt>
      <trkpt lat="45.13929" lon="5.93448">
        <ele>2270.77</ele>
        <time>2018-03-09T11:19:24Z</time>
      </trkpt>
      <trkpt lat="45.13934" lon="5.93444">
        <ele>2271.25</ele>
        <time>2018-03-09T11:20:19Z</time>
      </trkpt>
      <trkpt lat="45.13904" lon="5.93529">
        <ele>2290.96</ele>
        <time>2018-03-09T11:22:48Z</time>
      </trkpt>
      <trkpt lat="45.13896" lon="5.93538">
        <ele>2288.08</ele>
        <time>2018-03-09T11:24:19Z</time>
      </trkpt>
      <trkpt lat="45.139" lon="5.93527">
        <ele>2292.88</ele>
        <time>2018-03-09T11:26:27Z</time>
      </trkpt>
      <trkpt lat="45.139" lon="5.93531">
        <ele>2288.08</ele>
        <time>2018-03-09T11:27:02Z</time>
      </trkpt>
      <trkpt lat="45.13908" lon="5.93527">
        <ele>2291.44</ele>
        <time>2018-03-09T11:27:12Z</time>
      </trkpt>
      <trkpt lat="45.13909" lon="5.93527">
        <ele>2288.08</ele>
        <time>2018-03-09T11:27:15Z</time>
      </trkpt>
      <trkpt lat="45.13914" lon="5.93525">
        <ele>2290.48</ele>
        <time>2018-03-09T11:27:27Z</time>
      </trkpt>
      <trkpt lat="45.13887" lon="5.93537">
        <ele>2291.44</ele>
        <time>2018-03-09T11:29:25Z</time>
      </trkpt>
      <trkpt lat="45.13967" lon="5.93521">
        <ele>2314.99</ele>
        <time>2018-03-09T11:36:00Z</time>
      </trkpt>
      <trkpt lat="45.13963" lon="5.93557">
        <ele>2325.57</ele>
        <time>2018-03-09T11:37:23Z</time>
      </trkpt>
      <trkpt lat="45.13983" lon="5.93551">
        <ele>2334.22</ele>
        <time>2018-03-09T11:38:41Z</time>
      </trkpt>
      <trkpt lat="45.13993" lon="5.93546">
        <ele>2337.1</ele>
        <time>2018-03-09T11:38:59Z</time>
      </trkpt>
      <trkpt lat="45.13986" lon="5.93571">
        <ele>2342.87</ele>
        <time>2018-03-09T11:39:41Z</time>
      </trkpt>
      <trkpt lat="45.1398" lon="5.93592">
        <ele>2347.68</ele>
        <time>2018-03-09T11:40:14Z</time>
      </trkpt>
      <trkpt lat="45.14" lon="5.93579">
        <ele>2354.41</ele>
        <time>2018-03-09T11:41:11Z</time>
      </trkpt>
      <trkpt lat="45.14001" lon="5.93604">
        <ele>2364.98</ele>
        <time>2018-03-09T11:42:39Z</time>
      </trkpt>
      <trkpt lat="45.14003" lon="5.93603">
        <ele>2364.98</ele>
        <time>2018-03-09T11:43:01Z</time>
      </trkpt>
      <trkpt lat="45.14029" lon="5.93593">
        <ele>2374.59</ele>
        <time>2018-03-09T11:44:07Z</time>
      </trkpt>
      <trkpt lat="45.14013" lon="5.9362">
        <ele>2381.32</ele>
        <time>2018-03-09T11:45:07Z</time>
      </trkpt>
      <trkpt lat="45.14026" lon="5.93617">
        <ele>2387.57</ele>
        <time>2018-03-09T11:46:01Z</time>
      </trkpt>
      <trkpt lat="45.14023" lon="5.93634">
        <ele>2394.3</ele>
        <time>2018-03-09T11:46:53Z</time>
      </trkpt>
      <trkpt lat="45.1403" lon="5.93629">
        <ele>2397.18</ele>
        <time>2018-03-09T11:47:33Z</time>
      </trkpt>
      <trkpt lat="45.14038" lon="5.9363">
        <ele>2401.51</ele>
        <time>2018-03-09T11:48:22Z</time>
      </trkpt>
      <trkpt lat="45.14031" lon="5.93651">
        <ele>2407.76</ele>
        <time>2018-03-09T11:49:14Z</time>
      </trkpt>
      <trkpt lat="45.14048" lon="5.93643">
        <ele>2414.01</ele>
        <time>2018-03-09T11:49:58Z</time>
      </trkpt>
      <trkpt lat="45.14046" lon="5.93653">
        <ele>2417.85</ele>
        <time>2018-03-09T11:50:33Z</time>
      </trkpt>
      <trkpt lat="45.14043" lon="5.9366">
        <ele>2420.26</ele>
        <time>2018-03-09T11:50:58Z</time>
      </trkpt>
      <trkpt lat="45.1406" lon="5.9366">
        <ele>2428.91</ele>
        <time>2018-03-09T11:52:25Z</time>
      </trkpt>
      <trkpt lat="45.14066" lon="5.9367">
        <ele>2440.44</ele>
        <time>2018-03-09T11:53:40Z</time>
      </trkpt>
      <trkpt lat="45.14085" lon="5.93698">
        <ele>2427.47</ele>
        <time>2018-03-09T12:16:57Z</time>
      </trkpt>
      <trkpt lat="45.14107" lon="5.93692">
        <ele>2414.49</ele>
        <time>2018-03-09T12:17:02Z</time>
      </trkpt>
      <trkpt lat="45.14142" lon="5.93675">
        <ele>2386.61</ele>
        <time>2018-03-09T12:17:09Z</time>
      </trkpt>
      <trkpt lat="45.14154" lon="5.93673">
        <ele>2378.92</ele>
        <time>2018-03-09T12:17:11Z</time>
      </trkpt>
      <trkpt lat="45.14182" lon="5.93668">
        <ele>2362.58</ele>
        <time>2018-03-09T12:17:15Z</time>
      </trkpt>
      <trkpt lat="45.14204" lon="5.93658">
        <ele>2353.93</ele>
        <time>2018-03-09T12:17:19Z</time>
      </trkpt>
      <trkpt lat="45.14186" lon="5.93668">
        <ele>2353.44</ele>
        <time>2018-03-09T12:17:49Z</time>
      </trkpt>
      <trkpt lat="45.14202" lon="5.9367">
        <ele>2353.93</ele>
        <time>2018-03-09T12:19:27Z</time>
      </trkpt>
      <trkpt lat="45.14213" lon="5.93686">
        <ele>2349.6</ele>
        <time>2018-03-09T12:19:34Z</time>
      </trkpt>
      <trkpt lat="45.1421" lon="5.93687">
        <ele>2349.12</ele>
        <time>2018-03-09T12:20:02Z</time>
      </trkpt>
      <trkpt lat="45.14216" lon="5.9367">
        <ele>2346.72</ele>
        <time>2018-03-09T12:20:06Z</time>
      </trkpt>
      <trkpt lat="45.1423" lon="5.93662">
        <ele>2339.99</ele>
        <time>2018-03-09T12:20:09Z</time>
      </trkpt>
      <trkpt lat="45.1424" lon="5.93662">
        <ele>2331.33</ele>
        <time>2018-03-09T12:20:11Z</time>
      </trkpt>
      <trkpt lat="45.14259" lon="5.93657">
        <ele>2320.76</ele>
        <time>2018-03-09T12:20:14Z</time>
      </trkpt>
      <trkpt lat="45.14267" lon="5.93655">
        <ele>2317.4</ele>
        <time>2018-03-09T12:20:15Z</time>
      </trkpt>
      <trkpt lat="45.14278" lon="5.9365">
        <ele>2308.74</ele>
        <time>2018-03-09T12:20:17Z</time>
      </trkpt>
      <trkpt lat="45.14278" lon="5.93635">
        <ele>2305.38</ele>
        <time>2018-03-09T12:20:19Z</time>
      </trkpt>
      <trkpt lat="45.14281" lon="5.93627">
        <ele>2299.13</ele>
        <time>2018-03-09T12:20:21Z</time>
      </trkpt>
      <trkpt lat="45.14276" lon="5.93629">
        <ele>2297.21</ele>
        <time>2018-03-09T12:20:23Z</time>
      </trkpt>
      <trkpt lat="45.14299" lon="5.93621">
        <ele>2287.11</ele>
        <time>2018-03-09T12:20:29Z</time>
      </trkpt>
      <trkpt lat="45.14347" lon="5.93592">
        <ele>2253.47</ele>
        <time>2018-03-09T12:20:38Z</time>
      </trkpt>
      <trkpt lat="45.14358" lon="5.93572">
        <ele>2242.41</ele>
        <time>2018-03-09T12:20:42Z</time>
      </trkpt>
      <trkpt lat="45.144" lon="5.93533">
        <ele>2214.05</ele>
        <time>2018-03-09T12:20:52Z</time>
      </trkpt>
      <trkpt lat="45.14344" lon="5.93498">
        <ele>2211.17</ele>
        <time>2018-03-09T12:23:01Z</time>
      </trkpt>
      <trkpt lat="45.14328" lon="5.9346">
        <ele>2204.44</ele>
        <time>2018-03-09T12:23:09Z</time>
      </trkpt>
      <trkpt lat="45.1432" lon="5.93447">
        <ele>2202.52</ele>
        <time>2018-03-09T12:23:11Z</time>
      </trkpt>
      <trkpt lat="45.1431" lon="5.93409">
        <ele>2192.9</ele>
        <time>2018-03-09T12:23:16Z</time>
      </trkpt>
      <trkpt lat="45.14295" lon="5.93371">
        <ele>2184.25</ele>
        <time>2018-03-09T12:23:20Z</time>
      </trkpt>
      <trkpt lat="45.14285" lon="5.93295">
        <ele>2164.55</ele>
        <time>2018-03-09T12:23:27Z</time>
      </trkpt>
      <trkpt lat="45.14273" lon="5.93274">
        <ele>2162.62</ele>
        <time>2018-03-09T12:23:30Z</time>
      </trkpt>
      <trkpt lat="45.14255" lon="5.93226">
        <ele>2154.93</ele>
        <time>2018-03-09T12:23:36Z</time>
      </trkpt>
      <trkpt lat="45.14148" lon="5.92928">
        <ele>2131.38</ele>
        <time>2018-03-09T12:24:51Z</time>
      </trkpt>
      <trkpt lat="45.14114" lon="5.92873">
        <ele>2126.09</ele>
        <time>2018-03-09T12:25:00Z</time>
      </trkpt>
      <trkpt lat="45.14099" lon="5.929">
        <ele>2119.84</ele>
        <time>2018-03-09T12:28:08Z</time>
      </trkpt>
      <trkpt lat="45.14082" lon="5.92902">
        <ele>2111.19</ele>
        <time>2018-03-09T12:28:11Z</time>
      </trkpt>
      <trkpt lat="45.14071" lon="5.92884">
        <ele>2103.98</ele>
        <time>2018-03-09T12:28:13Z</time>
      </trkpt>
      <trkpt lat="45.14047" lon="5.92809">
        <ele>2089.08</ele>
        <time>2018-03-09T12:28:21Z</time>
      </trkpt>
      <trkpt lat="45.14008" lon="5.92753">
        <ele>2083.31</ele>
        <time>2018-03-09T12:28:43Z</time>
      </trkpt>
      <trkpt lat="45.13991" lon="5.92727">
        <ele>2079.47</ele>
        <time>2018-03-09T12:28:48Z</time>
      </trkpt>
      <trkpt lat="45.13988" lon="5.92722">
        <ele>2078.51</ele>
        <time>2018-03-09T12:28:49Z</time>
      </trkpt>
      <trkpt lat="45.13987" lon="5.927">
        <ele>2073.7</ele>
        <time>2018-03-09T12:28:52Z</time>
      </trkpt>
      <trkpt lat="45.1399" lon="5.92693">
        <ele>2069.86</ele>
        <time>2018-03-09T12:28:53Z</time>
      </trkpt>
      <trkpt lat="45.1399" lon="5.9267">
        <ele>2062.65</ele>
        <time>2018-03-09T12:28:55Z</time>
      </trkpt>
      <trkpt lat="45.13976" lon="5.92546">
        <ele>2038.13</ele>
        <time>2018-03-09T12:29:07Z</time>
      </trkpt>
      <trkpt lat="45.13985" lon="5.92523">
        <ele>2035.73</ele>
        <time>2018-03-09T12:29:26Z</time>
      </trkpt>
      <trkpt lat="45.13974" lon="5.92515">
        <ele>2030.92</ele>
        <time>2018-03-09T12:29:29Z</time>
      </trkpt>
      <trkpt lat="45.13973" lon="5.92498">
        <ele>2022.27</ele>
        <time>2018-03-09T12:29:32Z</time>
      </trkpt>
      <trkpt lat="45.13854" lon="5.92447">
        <ele>1977.09</ele>
        <time>2018-03-09T12:30:05Z</time>
      </trkpt>
      <trkpt lat="45.13834" lon="5.92417">
        <ele>1973.24</ele>
        <time>2018-03-09T12:30:09Z</time>
      </trkpt>
      <trkpt lat="45.13819" lon="5.92412">
        <ele>1972.28</ele>
        <time>2018-03-09T12:31:09Z</time>
      </trkpt>
      <trkpt lat="45.13857" lon="5.92364">
        <ele>1953.54</ele>
        <time>2018-03-09T12:31:20Z</time>
      </trkpt>
      <trkpt lat="45.13855" lon="5.92336">
        <ele>1944.4</ele>
        <time>2018-03-09T12:31:23Z</time>
      </trkpt>
      <trkpt lat="45.1385" lon="5.92302">
        <ele>1933.83</ele>
        <time>2018-03-09T12:31:26Z</time>
      </trkpt>
      <trkpt lat="45.13817" lon="5.92246">
        <ele>1928.54</ele>
        <time>2018-03-09T12:31:52Z</time>
      </trkpt>
      <trkpt lat="45.13818" lon="5.92239">
        <ele>1925.66</ele>
        <time>2018-03-09T12:37:19Z</time>
      </trkpt>
      <trkpt lat="45.13816" lon="5.92242">
        <ele>1926.62</ele>
        <time>2018-03-09T12:38:32Z</time>
      </trkpt>
      <trkpt lat="45.13815" lon="5.92241">
        <ele>1926.14</ele>
        <time>2018-03-09T12:38:54Z</time>
      </trkpt>
      <trkpt lat="45.1381" lon="5.92253">
        <ele>1926.62</ele>
        <time>2018-03-09T12:40:58Z</time>
      </trkpt>
      <trkpt lat="45.13817" lon="5.92245">
        <ele>1924.22</ele>
        <time>2018-03-09T12:44:22Z</time>
      </trkpt>
      <trkpt lat="45.13811" lon="5.92241">
        <ele>1923.74</ele>
        <time>2018-03-09T12:46:25Z</time>
      </trkpt>
      <trkpt lat="45.13802" lon="5.92239">
        <ele>1924.7</ele>
        <time>2018-03-09T12:46:33Z</time>
      </trkpt>
      <trkpt lat="45.13649" lon="5.92201">
        <ele>1943.44</ele>
        <time>2018-03-09T12:49:43Z</time>
      </trkpt>
      <trkpt lat="45.13628" lon="5.9221">
        <ele>1944.88</ele>
        <time>2018-03-09T12:49:57Z</time>
      </trkpt>
      <trkpt lat="45.13493" lon="5.92141">
        <ele>1957.86</ele>
        <time>2018-03-09T12:53:00Z</time>
      </trkpt>
      <trkpt lat="45.13456" lon="5.92144">
        <ele>1962.67</ele>
        <time>2018-03-09T12:53:58Z</time>
      </trkpt>
      <trkpt lat="45.13423" lon="5.92142">
        <ele>1965.07</ele>
        <time>2018-03-09T12:54:31Z</time>
      </trkpt>
      <trkpt lat="45.13385" lon="5.92136">
        <ele>1967.96</ele>
        <time>2018-03-09T12:55:08Z</time>
      </trkpt>
      <trkpt lat="45.13361" lon="5.92104">
        <ele>1976.61</ele>
        <time>2018-03-09T12:56:13Z</time>
      </trkpt>
      <trkpt lat="45.13348" lon="5.92123">
        <ele>1983.82</ele>
        <time>2018-03-09T12:56:54Z</time>
      </trkpt>
      <trkpt lat="45.13322" lon="5.92099">
        <ele>1991.03</ele>
        <time>2018-03-09T12:57:34Z</time>
      </trkpt>
      <trkpt lat="45.13281" lon="5.9206">
        <ele>1997.28</ele>
        <time>2018-03-09T13:00:17Z</time>
      </trkpt>
      <trkpt lat="45.13241" lon="5.92013">
        <ele>2000.16</ele>
        <time>2018-03-09T13:01:09Z</time>
      </trkpt>
      <trkpt lat="45.13231" lon="5.91982">
        <ele>1999.2</ele>
        <time>2018-03-09T13:01:39Z</time>
      </trkpt>
      <trkpt lat="45.13191" lon="5.91994">
        <ele>2010.25</ele>
        <time>2018-03-09T13:02:51Z</time>
      </trkpt>
      <trkpt lat="45.13134" lon="5.91998">
        <ele>2018.43</ele>
        <time>2018-03-09T13:04:07Z</time>
      </trkpt>
      <trkpt lat="45.13124" lon="5.92006">
        <ele>2019.87</ele>
        <time>2018-03-09T13:04:25Z</time>
      </trkpt>
      <trkpt lat="45.13105" lon="5.92012">
        <ele>2017.46</ele>
        <time>2018-03-09T13:04:47Z</time>
      </trkpt>
      <trkpt lat="45.12986" lon="5.92014">
        <ele>2042.46</ele>
        <time>2018-03-09T13:07:44Z</time>
      </trkpt>
      <trkpt lat="45.12937" lon="5.91979">
        <ele>2053.99</ele>
        <time>2018-03-09T13:08:59Z</time>
      </trkpt>
      <trkpt lat="45.12928" lon="5.92017">
        <ele>2065.53</ele>
        <time>2018-03-09T13:10:12Z</time>
      </trkpt>
      <trkpt lat="45.1291" lon="5.91978">
        <ele>2079.47</ele>
        <time>2018-03-09T13:11:27Z</time>
      </trkpt>
      <trkpt lat="45.12902" lon="5.92001">
        <ele>2087.16</ele>
        <time>2018-03-09T13:12:07Z</time>
      </trkpt>
      <trkpt lat="45.12896" lon="5.9199">
        <ele>2089.56</ele>
        <time>2018-03-09T13:12:22Z</time>
      </trkpt>
      <trkpt lat="45.12849" lon="5.91958">
        <ele>2105.42</ele>
        <time>2018-03-09T13:16:42Z</time>
      </trkpt>
      <trkpt lat="45.12813" lon="5.9189">
        <ele>2109.27</ele>
        <time>2018-03-09T13:17:51Z</time>
      </trkpt>
      <trkpt lat="45.12746" lon="5.91813">
        <ele>2098.7</ele>
        <time>2018-03-09T13:18:54Z</time>
      </trkpt>
      <trkpt lat="45.12668" lon="5.91624">
        <ele>2114.08</ele>
        <time>2018-03-09T13:22:02Z</time>
      </trkpt>
      <trkpt lat="45.12661" lon="5.91614">
        <ele>2111.19</ele>
        <time>2018-03-09T13:22:12Z</time>
      </trkpt>
      <trkpt lat="45.12666" lon="5.91502">
        <ele>2125.13</ele>
        <time>2018-03-09T13:24:14Z</time>
      </trkpt>
      <trkpt lat="45.12661" lon="5.91454">
        <ele>2129.46</ele>
        <time>2018-03-09T13:24:56Z</time>
      </trkpt>
      <trkpt lat="45.12625" lon="5.91343">
        <ele>2146.28</ele>
        <time>2018-03-09T13:27:01Z</time>
      </trkpt>
      <trkpt lat="45.12603" lon="5.91303">
        <ele>2155.41</ele>
        <time>2018-03-09T13:27:57Z</time>
      </trkpt>
      <trkpt lat="45.12517" lon="5.91188">
        <ele>2168.39</ele>
        <time>2018-03-09T13:30:24Z</time>
      </trkpt>
      <trkpt lat="45.1252" lon="5.91166">
        <ele>2172.24</ele>
        <time>2018-03-09T13:35:53Z</time>
      </trkpt>
      <trkpt lat="45.12521" lon="5.91162">
        <ele>2172.24</ele>
        <time>2018-03-09T13:35:55Z</time>
      </trkpt>
      <trkpt lat="45.12576" lon="5.91043">
        <ele>2181.37</ele>
        <time>2018-03-09T13:38:13Z</time>
      </trkpt>
      <trkpt lat="45.12591" lon="5.90925">
        <ele>2179.93</ele>
        <time>2018-03-09T13:39:23Z</time>
      </trkpt>
      <trkpt lat="45.12575" lon="5.908">
        <ele>2206.36</ele>
        <time>2018-03-09T13:41:49Z</time>
      </trkpt>
      <trkpt lat="45.12567" lon="5.90688">
        <ele>2226.07</ele>
        <time>2018-03-09T13:44:03Z</time>
      </trkpt>
      <trkpt lat="45.12547" lon="5.90622">
        <ele>2241.45</ele>
        <time>2018-03-09T13:45:22Z</time>
      </trkpt>
      <trkpt lat="45.12542" lon="5.90605">
        <ele>2243.85</ele>
        <time>2018-03-09T13:45:39Z</time>
      </trkpt>
      <trkpt lat="45.12539" lon="5.90589">
        <ele>2245.78</ele>
        <time>2018-03-09T13:45:54Z</time>
      </trkpt>
      <trkpt lat="45.12572" lon="5.90461">
        <ele>2250.58</ele>
        <time>2018-03-09T13:54:35Z</time>
      </trkpt>
      <trkpt lat="45.12527" lon="5.90353">
        <ele>2241.45</ele>
        <time>2018-03-09T14:00:45Z</time>
      </trkpt>
      <trkpt lat="45.12509" lon="5.90245">
        <ele>2233.28</ele>
        <time>2018-03-09T14:01:17Z</time>
      </trkpt>
      <trkpt lat="45.12498" lon="5.90191">
        <ele>2226.55</ele>
        <time>2018-03-09T14:01:38Z</time>
      </trkpt>
      <trkpt lat="45.1249" lon="5.90152">
        <ele>2218.86</ele>
        <time>2018-03-09T14:01:42Z</time>
      </trkpt>
      <trkpt lat="45.12487" lon="5.90126">
        <ele>2215.5</ele>
        <time>2018-03-09T14:01:44Z</time>
      </trkpt>
      <trkpt lat="45.12485" lon="5.90089">
        <ele>2206.36</ele>
        <time>2018-03-09T14:01:47Z</time>
      </trkpt>
      <trkpt lat="45.12486" lon="5.90051">
        <ele>2195.79</ele>
        <time>2018-03-09T14:01:50Z</time>
      </trkpt>
      <trkpt lat="45.12494" lon="5.90016">
        <ele>2186.66</ele>
        <time>2018-03-09T14:01:53Z</time>
      </trkpt>
      <trkpt lat="45.125" lon="5.8999">
        <ele>2182.33</ele>
        <time>2018-03-09T14:01:55Z</time>
      </trkpt>
      <trkpt lat="45.1251" lon="5.89874">
        <ele>2150.13</ele>
        <time>2018-03-09T14:02:06Z</time>
      </trkpt>
      <trkpt lat="45.12478" lon="5.89773">
        <ele>2111.67</ele>
        <time>2018-03-09T14:02:22Z</time>
      </trkpt>
      <trkpt lat="45.12476" lon="5.89753">
        <ele>2100.62</ele>
        <time>2018-03-09T14:02:25Z</time>
      </trkpt>
      <trkpt lat="45.12477" lon="5.89716">
        <ele>2083.31</ele>
        <time>2018-03-09T14:02:30Z</time>
      </trkpt>
      <trkpt lat="45.12477" lon="5.89714">
        <ele>2081.39</ele>
        <time>2018-03-09T14:02:32Z</time>
      </trkpt>
      <trkpt lat="45.12503" lon="5.89714">
        <ele>2077.07</ele>
        <time>2018-03-09T14:02:59Z</time>
      </trkpt>
      <trkpt lat="45.12509" lon="5.89698">
        <ele>2068.41</ele>
        <time>2018-03-09T14:03:03Z</time>
      </trkpt>
      <trkpt lat="45.12534" lon="5.89701">
        <ele>2060.72</ele>
        <time>2018-03-09T14:03:09Z</time>
      </trkpt>
      <trkpt lat="45.12545" lon="5.89698">
        <ele>2054.47</ele>
        <time>2018-03-09T14:03:11Z</time>
      </trkpt>
      <trkpt lat="45.12587" lon="5.89682">
        <ele>2040.05</ele>
        <time>2018-03-09T14:03:17Z</time>
      </trkpt>
      <trkpt lat="45.12618" lon="5.89695">
        <ele>2035.73</ele>
        <time>2018-03-09T14:03:21Z</time>
      </trkpt>
      <trkpt lat="45.12634" lon="5.89685">
        <ele>2030.44</ele>
        <time>2018-03-09T14:03:23Z</time>
      </trkpt>
      <trkpt lat="45.12672" lon="5.89679">
        <ele>2017.46</ele>
        <time>2018-03-09T14:03:30Z</time>
      </trkpt>
      <trkpt lat="45.12669" lon="5.89664">
        <ele>2016.98</ele>
        <time>2018-03-09T14:03:43Z</time>
      </trkpt>
      <trkpt lat="45.12673" lon="5.89638">
        <ele>2008.33</ele>
        <time>2018-03-09T14:03:49Z</time>
      </trkpt>
      <trkpt lat="45.12672" lon="5.89621">
        <ele>2004.97</ele>
        <time>2018-03-09T14:03:51Z</time>
      </trkpt>
      <trkpt lat="45.12673" lon="5.89614">
        <ele>2000.64</ele>
        <time>2018-03-09T14:03:52Z</time>
      </trkpt>
      <trkpt lat="45.12677" lon="5.89577">
        <ele>1989.59</ele>
        <time>2018-03-09T14:03:56Z</time>
      </trkpt>
      <trkpt lat="45.12691" lon="5.89524">
        <ele>1979.01</ele>
        <time>2018-03-09T14:04:03Z</time>
      </trkpt>
      <trkpt lat="45.12687" lon="5.89516">
        <ele>1976.61</ele>
        <time>2018-03-09T14:04:22Z</time>
      </trkpt>
      <trkpt lat="45.12703" lon="5.89519">
        <ele>1972.76</ele>
        <time>2018-03-09T14:04:54Z</time>
      </trkpt>
      <trkpt lat="45.12713" lon="5.89512">
        <ele>1966.51</ele>
        <time>2018-03-09T14:04:57Z</time>
      </trkpt>
      <trkpt lat="45.12726" lon="5.89498">
        <ele>1957.86</ele>
        <time>2018-03-09T14:05:01Z</time>
      </trkpt>
      <trkpt lat="45.12742" lon="5.89463">
        <ele>1934.79</ele>
        <time>2018-03-09T14:05:17Z</time>
      </trkpt>
      <trkpt lat="45.12734" lon="5.89403">
        <ele>1929.5</ele>
        <time>2018-03-09T14:05:22Z</time>
      </trkpt>
      <trkpt lat="45.12701" lon="5.89326">
        <ele>1922.29</ele>
        <time>2018-03-09T14:05:30Z</time>
      </trkpt>
      <trkpt lat="45.12686" lon="5.8924">
        <ele>1917.01</ele>
        <time>2018-03-09T14:05:42Z</time>
      </trkpt>
      <trkpt lat="45.12694" lon="5.89226">
        <ele>1914.12</ele>
        <time>2018-03-09T14:06:06Z</time>
      </trkpt>
      <trkpt lat="45.12749" lon="5.89228">
        <ele>1901.14</ele>
        <time>2018-03-09T14:06:23Z</time>
      </trkpt>
      <trkpt lat="45.12764" lon="5.89214">
        <ele>1891.53</ele>
        <time>2018-03-09T14:06:28Z</time>
      </trkpt>
      <trkpt lat="45.12782" lon="5.89193">
        <ele>1879.03</ele>
        <time>2018-03-09T14:06:33Z</time>
      </trkpt>
      <trkpt lat="45.12791" lon="5.89174">
        <ele>1868.94</ele>
        <time>2018-03-09T14:06:37Z</time>
      </trkpt>
      <trkpt lat="45.12798" lon="5.8913">
        <ele>1850.68</ele>
        <time>2018-03-09T14:06:44Z</time>
      </trkpt>
      <trkpt lat="45.12795" lon="5.89131">
        <ele>1851.16</ele>
        <time>2018-03-09T14:06:52Z</time>
      </trkpt>
      <trkpt lat="45.12809" lon="5.89107">
        <ele>1840.1</ele>
        <time>2018-03-09T14:07:05Z</time>
      </trkpt>
      <trkpt lat="45.12824" lon="5.89096">
        <ele>1830.97</ele>
        <time>2018-03-09T14:07:07Z</time>
      </trkpt>
      <trkpt lat="45.12859" lon="5.89076">
        <ele>1821.84</ele>
        <time>2018-03-09T14:07:11Z</time>
      </trkpt>
      <trkpt lat="45.12882" lon="5.89093">
        <ele>1817.99</ele>
        <time>2018-03-09T14:07:17Z</time>
      </trkpt>
      <trkpt lat="45.12902" lon="5.89115">
        <ele>1808.38</ele>
        <time>2018-03-09T14:07:21Z</time>
      </trkpt>
      <trkpt lat="45.12948" lon="5.89186">
        <ele>1800.21</ele>
        <time>2018-03-09T14:07:48Z</time>
      </trkpt>
      <trkpt lat="45.12944" lon="5.89031">
        <ele>1772.81</ele>
        <time>2018-03-09T14:08:28Z</time>
      </trkpt>
      <trkpt lat="45.12949" lon="5.8902">
        <ele>1767.52</ele>
        <time>2018-03-09T14:08:30Z</time>
      </trkpt>
      <trkpt lat="45.13063" lon="5.88873">
        <ele>1749.26</ele>
        <time>2018-03-09T14:08:47Z</time>
      </trkpt>
      <trkpt lat="45.13087" lon="5.88855">
        <ele>1743.97</ele>
        <time>2018-03-09T14:08:50Z</time>
      </trkpt>
      <trkpt lat="45.13155" lon="5.88868">
        <ele>1728.11</ele>
        <time>2018-03-09T14:08:57Z</time>
      </trkpt>
      <trkpt lat="45.13179" lon="5.88881">
        <ele>1719.94</ele>
        <time>2018-03-09T14:08:59Z</time>
      </trkpt>
      <trkpt lat="45.13218" lon="5.88915">
        <ele>1713.69</ele>
        <time>2018-03-09T14:09:03Z</time>
      </trkpt>
      <trkpt lat="45.13228" lon="5.88921">
        <ele>1712.25</ele>
        <time>2018-03-09T14:09:05Z</time>
      </trkpt>
      <trkpt lat="45.13235" lon="5.88919">
        <ele>1711.28</ele>
        <time>2018-03-09T14:09:07Z</time>
      </trkpt>
      <trkpt lat="45.13239" lon="5.88924">
        <ele>1711.76</ele>
        <time>2018-03-09T14:09:17Z</time>
      </trkpt>
      <trkpt lat="45.13326" lon="5.88848">
        <ele>1642.07</ele>
        <time>2018-03-09T14:09:43Z</time>
      </trkpt>
      <trkpt lat="45.13325" lon="5.88783">
        <ele>1634.38</ele>
        <time>2018-03-09T14:09:51Z</time>
      </trkpt>
      <trkpt lat="45.13354" lon="5.88775">
        <ele>1625.25</ele>
        <time>2018-03-09T14:09:56Z</time>
      </trkpt>
      <trkpt lat="45.13366" lon="5.88776">
        <ele>1618.04</ele>
        <time>2018-03-09T14:09:58Z</time>
      </trkpt>
      <trkpt lat="45.13385" lon="5.88789">
        <ele>1610.83</ele>
        <time>2018-03-09T14:10:01Z</time>
      </trkpt>
      <trkpt lat="45.13437" lon="5.8881">
        <ele>1585.35</ele>
        <time>2018-03-09T14:10:08Z</time>
      </trkpt>
      <trkpt lat="45.1346" lon="5.88823">
        <ele>1576.7</ele>
        <time>2018-03-09T14:10:10Z</time>
      </trkpt>
      <trkpt lat="45.13485" lon="5.88832">
        <ele>1569.49</ele>
        <time>2018-03-09T14:10:12Z</time>
      </trkpt>
      <trkpt lat="45.13509" lon="5.88836">
        <ele>1565.64</ele>
        <time>2018-03-09T14:10:14Z</time>
      </trkpt>
      <trkpt lat="45.13543" lon="5.88827">
        <ele>1555.07</ele>
        <time>2018-03-09T14:10:17Z</time>
      </trkpt>
      <trkpt lat="45.13576" lon="5.8884">
        <ele>1544.5</ele>
        <time>2018-03-09T14:10:20Z</time>
      </trkpt>
      <trkpt lat="45.13597" lon="5.88823">
        <ele>1539.69</ele>
        <time>2018-03-09T14:10:22Z</time>
      </trkpt>
      <trkpt lat="45.13608" lon="5.88822">
        <ele>1535.36</ele>
        <time>2018-03-09T14:10:23Z</time>
      </trkpt>
      <trkpt lat="45.13629" lon="5.88832">
        <ele>1529.59</ele>
        <time>2018-03-09T14:10:25Z</time>
      </trkpt>
      <trkpt lat="45.13665" lon="5.88818">
        <ele>1519.98</ele>
        <time>2018-03-09T14:10:29Z</time>
      </trkpt>
      <trkpt lat="45.13678" lon="5.88827">
        <ele>1513.73</ele>
        <time>2018-03-09T14:10:31Z</time>
      </trkpt>
      <trkpt lat="45.13693" lon="5.88827">
        <ele>1507.97</ele>
        <time>2018-03-09T14:10:34Z</time>
      </trkpt>
      <trkpt lat="45.13707" lon="5.88837">
        <ele>1507</ele>
        <time>2018-03-09T14:10:37Z</time>
      </trkpt>
      <trkpt lat="45.13713" lon="5.88839">
        <ele>1503.64</ele>
        <time>2018-03-09T14:10:38Z</time>
      </trkpt>
      <trkpt lat="45.13719" lon="5.88837">
        <ele>1503.16</ele>
        <time>2018-03-09T14:10:39Z</time>
      </trkpt>
      <trkpt lat="45.13885" lon="5.88868">
        <ele>1442.6</ele>
        <time>2018-03-09T14:11:02Z</time>
      </trkpt>
      <trkpt lat="45.13936" lon="5.88891">
        <ele>1424.33</ele>
        <time>2018-03-09T14:11:14Z</time>
      </trkpt>
      <trkpt lat="45.13939" lon="5.88908">
        <ele>1420</ele>
        <time>2018-03-09T14:11:18Z</time>
      </trkpt>
      <trkpt lat="45.13949" lon="5.88903">
        <ele>1418.56</ele>
        <time>2018-03-09T14:11:39Z</time>
      </trkpt>
      <trkpt lat="45.13976" lon="5.88898">
        <ele>1418.08</ele>
        <time>2018-03-09T14:12:07Z</time>
      </trkpt>
      <trkpt lat="45.13973" lon="5.88891">
        <ele>1417.12</ele>
        <time>2018-03-09T14:12:26Z</time>
      </trkpt>
      <trkpt lat="45.13974" lon="5.88891">
        <ele>1418.56</ele>
        <time>2018-03-09T14:12:35Z</time>
      </trkpt>
      <trkpt lat="45.13972" lon="5.8889">
        <ele>1415.68</ele>
        <time>2018-03-09T14:13:05Z</time>
      </trkpt>
    </trkseg>
  </trk>
</gpx>